sensor_id;sensor_type;location;lat;lon;timestamp;P1;durP1;ratioP1;P2;durP2;ratioP2
37069;SDS011;22984;48.862;9.320;2023-03-12T00:00:58;16.83;;;7.38;;
37069;SDS011;22984;48.862;9.320;2023-03-12T00:03:25;14.63;;;7.97;;
37069;SDS011;22984;48.862;9.320;2023-03-12T00:05:51;14.48;;;7.80;;
37069;SDS011;22984;48.862;9.320;2023-03-12T00:08:17;14.35;;;7.75;;
37069;SDS011;22984;48.862;9.320;2023-03-12T00:10:43;13.57;;;7.57;;
37069;SDS011;22984;48.862;9.320;2023-03-12T00:13:09;17.85;;;8.48;;
37069;SDS011;22984;48.862;9.320;2023-03-12T00:15:38;16.65;;;8.23;;
37069;SDS011;22984;48.862;9.320;2023-03-12T00:18:04;14.60;;;8.30;;
37069;SDS011;22984;48.862;9.320;2023-03-12T00:20:30;16.35;;;8.35;;
37069;SDS011;22984;48.862;9.320;2023-03-12T00:22:56;20.73;;;9.57;;
37069;SDS011;22984;48.862;9.320;2023-03-12T00:25:23;15.75;;;8.18;;
37069;SDS011;22984;48.862;9.320;2023-03-12T00:27:49;19.02;;;8.70;;
37069;SDS011;22984;48.862;9.320;2023-03-12T00:30:15;14.48;;;9.27;;
37069;SDS011;22984;48.862;9.320;2023-03-12T00:32:41;20.40;;;9.73;;
37069;SDS011;22984;48.862;9.320;2023-03-12T00:35:07;21.65;;;13.38;;
37069;SDS011;22984;48.862;9.320;2023-03-12T00:37:33;17.88;;;10.10;;
37069;SDS011;22984;48.862;9.320;2023-03-12T00:39:59;14.32;;;8.50;;
37069;SDS011;22984;48.862;9.320;2023-03-12T00:42:25;15.65;;;8.73;;
37069;SDS011;22984;48.862;9.320;2023-03-12T00:44:51;16.20;;;8.52;;
37069;SDS011;22984;48.862;9.320;2023-03-12T00:47:17;13.07;;;7.83;;
37069;SDS011;22984;48.862;9.320;2023-03-12T00:49:44;15.35;;;9.10;;
37069;SDS011;22984;48.862;9.320;2023-03-12T00:52:10;16.20;;;8.55;;
37069;SDS011;22984;48.862;9.320;2023-03-12T00:54:36;17.90;;;8.18;;
37069;SDS011;22984;48.862;9.320;2023-03-12T00:57:02;15.52;;;8.77;;
37069;SDS011;22984;48.862;9.320;2023-03-12T00:59:28;14.45;;;8.13;;
37069;SDS011;22984;48.862;9.320;2023-03-12T01:01:54;12.98;;;7.32;;
37069;SDS011;22984;48.862;9.320;2023-03-12T01:04:20;12.07;;;7.22;;
37069;SDS011;22984;48.862;9.320;2023-03-12T01:06:46;14.13;;;7.10;;
37069;SDS011;22984;48.862;9.320;2023-03-12T01:09:12;10.23;;;6.70;;
37069;SDS011;22984;48.862;9.320;2023-03-12T01:11:38;13.35;;;6.88;;
37069;SDS011;22984;48.862;9.320;2023-03-12T01:14:05;19.25;;;8.20;;
37069;SDS011;22984;48.862;9.320;2023-03-12T01:16:31;12.18;;;6.82;;
37069;SDS011;22984;48.862;9.320;2023-03-12T01:18:58;15.55;;;7.07;;
37069;SDS011;22984;48.862;9.320;2023-03-12T01:21:25;16.17;;;7.60;;
37069;SDS011;22984;48.862;9.320;2023-03-12T01:23:51;14.95;;;9.25;;
37069;SDS011;22984;48.862;9.320;2023-03-12T01:26:17;20.85;;;9.63;;
37069;SDS011;22984;48.862;9.320;2023-03-12T01:28:44;17.02;;;9.38;;
37069;SDS011;22984;48.862;9.320;2023-03-12T01:31:11;16.23;;;9.57;;
37069;SDS011;22984;48.862;9.320;2023-03-12T01:33:37;15.10;;;8.77;;
37069;SDS011;22984;48.862;9.320;2023-03-12T01:36:04;15.63;;;9.60;;
37069;SDS011;22984;48.862;9.320;2023-03-12T01:38:30;14.60;;;8.52;;
37069;SDS011;22984;48.862;9.320;2023-03-12T01:40:56;16.93;;;9.37;;
37069;SDS011;22984;48.862;9.320;2023-03-12T01:45:54;13.82;;;8.55;;
37069;SDS011;22984;48.862;9.320;2023-03-12T01:48:23;16.73;;;8.23;;
37069;SDS011;22984;48.862;9.320;2023-03-12T01:50:50;19.73;;;8.32;;
37069;SDS011;22984;48.862;9.320;2023-03-12T01:53:16;13.73;;;8.00;;
37069;SDS011;22984;48.862;9.320;2023-03-12T01:55:42;14.60;;;7.90;;
37069;SDS011;22984;48.862;9.320;2023-03-12T01:58:08;16.02;;;9.02;;
37069;SDS011;22984;48.862;9.320;2023-03-12T02:00:35;15.23;;;8.55;;
37069;SDS011;22984;48.862;9.320;2023-03-12T02:03:02;16.08;;;8.85;;
37069;SDS011;22984;48.862;9.320;2023-03-12T02:08:04;13.07;;;8.23;;
37069;SDS011;22984;48.862;9.320;2023-03-12T02:10:31;11.63;;;7.82;;
37069;SDS011;22984;48.862;9.320;2023-03-12T02:12:57;11.20;;;7.32;;
37069;SDS011;22984;48.862;9.320;2023-03-12T02:15:23;11.52;;;7.07;;
37069;SDS011;22984;48.862;9.320;2023-03-12T02:17:49;17.73;;;7.45;;
37069;SDS011;22984;48.862;9.320;2023-03-12T02:20:22;11.40;;;7.10;;
37069;SDS011;22984;48.862;9.320;2023-03-12T02:22:51;13.10;;;7.35;;
37069;SDS011;22984;48.862;9.320;2023-03-12T02:27:46;17.60;;;8.63;;
37069;SDS011;22984;48.862;9.320;2023-03-12T02:30:13;13.88;;;8.77;;
37069;SDS011;22984;48.862;9.320;2023-03-12T02:32:40;19.25;;;9.07;;
37069;SDS011;22984;48.862;9.320;2023-03-12T02:35:07;16.58;;;9.85;;
37069;SDS011;22984;48.862;9.320;2023-03-12T02:37:33;15.68;;;8.85;;
37069;SDS011;22984;48.862;9.320;2023-03-12T02:40:04;11.33;;;8.30;;
37069;SDS011;22984;48.862;9.320;2023-03-12T02:42:32;12.00;;;7.85;;
37069;SDS011;22984;48.862;9.320;2023-03-12T02:44:59;13.55;;;8.35;;
37069;SDS011;22984;48.862;9.320;2023-03-12T02:47:25;13.75;;;8.43;;
37069;SDS011;22984;48.862;9.320;2023-03-12T02:49:51;12.40;;;7.30;;
37069;SDS011;22984;48.862;9.320;2023-03-12T02:52:17;12.13;;;7.10;;
37069;SDS011;22984;48.862;9.320;2023-03-12T02:54:43;13.53;;;7.40;;
37069;SDS011;22984;48.862;9.320;2023-03-12T02:57:09;15.73;;;7.38;;
37069;SDS011;22984;48.862;9.320;2023-03-12T02:59:35;12.40;;;6.60;;
37069;SDS011;22984;48.862;9.320;2023-03-12T03:02:01;11.73;;;6.78;;
37069;SDS011;22984;48.862;9.320;2023-03-12T03:04:28;11.77;;;6.15;;
37069;SDS011;22984;48.862;9.320;2023-03-12T03:06:55;13.07;;;6.55;;
37069;SDS011;22984;48.862;9.320;2023-03-12T03:09:21;12.43;;;7.60;;
37069;SDS011;22984;48.862;9.320;2023-03-12T03:11:47;13.77;;;7.50;;
37069;SDS011;22984;48.862;9.320;2023-03-12T03:14:13;11.73;;;6.70;;
37069;SDS011;22984;48.862;9.320;2023-03-12T03:16:40;7.80;;;6.22;;
37069;SDS011;22984;48.862;9.320;2023-03-12T03:19:06;12.18;;;6.45;;
37069;SDS011;22984;48.862;9.320;2023-03-12T03:21:32;10.95;;;6.57;;
37069;SDS011;22984;48.862;9.320;2023-03-12T03:23:58;10.32;;;6.20;;
37069;SDS011;22984;48.862;9.320;2023-03-12T03:26:24;11.60;;;6.20;;
37069;SDS011;22984;48.862;9.320;2023-03-12T03:28:51;9.75;;;5.30;;
37069;SDS011;22984;48.862;9.320;2023-03-12T03:31:17;9.13;;;5.45;;
37069;SDS011;22984;48.862;9.320;2023-03-12T03:33:43;10.05;;;5.70;;
37069;SDS011;22984;48.862;9.320;2023-03-12T03:36:10;7.20;;;5.38;;
37069;SDS011;22984;48.862;9.320;2023-03-12T03:38:39;10.13;;;4.72;;
37069;SDS011;22984;48.862;9.320;2023-03-12T03:41:05;10.23;;;4.90;;
37069;SDS011;22984;48.862;9.320;2023-03-12T03:43:31;8.93;;;4.93;;
37069;SDS011;22984;48.862;9.320;2023-03-12T03:45:58;11.07;;;4.45;;
37069;SDS011;22984;48.862;9.320;2023-03-12T03:48:25;7.43;;;4.47;;
37069;SDS011;22984;48.862;9.320;2023-03-12T03:50:51;9.15;;;4.82;;
37069;SDS011;22984;48.862;9.320;2023-03-12T03:53:17;11.13;;;4.82;;
37069;SDS011;22984;48.862;9.320;2023-03-12T03:55:44;12.57;;;5.35;;
37069;SDS011;22984;48.862;9.320;2023-03-12T03:58:10;6.65;;;4.30;;
37069;SDS011;22984;48.862;9.320;2023-03-12T04:00:36;9.47;;;5.67;;
37069;SDS011;22984;48.862;9.320;2023-03-12T04:03:02;8.20;;;4.78;;
37069;SDS011;22984;48.862;9.320;2023-03-12T04:05:28;8.73;;;4.97;;
37069;SDS011;22984;48.862;9.320;2023-03-12T04:07:55;9.05;;;5.22;;
37069;SDS011;22984;48.862;9.320;2023-03-12T04:10:26;11.70;;;5.07;;
37069;SDS011;22984;48.862;9.320;2023-03-12T04:12:53;7.43;;;4.47;;
37069;SDS011;22984;48.862;9.320;2023-03-12T04:15:19;7.05;;;4.65;;
37069;SDS011;22984;48.862;9.320;2023-03-12T04:17:45;9.30;;;5.07;;
37069;SDS011;22984;48.862;9.320;2023-03-12T04:20:11;9.43;;;4.95;;
37069;SDS011;22984;48.862;9.320;2023-03-12T04:22:37;14.60;;;4.72;;
37069;SDS011;22984;48.862;9.320;2023-03-12T04:25:03;9.90;;;5.20;;
37069;SDS011;22984;48.862;9.320;2023-03-12T04:27:31;10.05;;;4.63;;
37069;SDS011;22984;48.862;9.320;2023-03-12T04:29:57;5.22;;;3.90;;
37069;SDS011;22984;48.862;9.320;2023-03-12T04:32:23;7.90;;;4.38;;
37069;SDS011;22984;48.862;9.320;2023-03-12T04:34:49;7.83;;;4.33;;
37069;SDS011;22984;48.862;9.320;2023-03-12T04:37:15;8.88;;;4.78;;
37069;SDS011;22984;48.862;9.320;2023-03-12T04:39:42;8.10;;;5.00;;
37069;SDS011;22984;48.862;9.320;2023-03-12T04:42:08;10.33;;;5.30;;
37069;SDS011;22984;48.862;9.320;2023-03-12T04:44:35;12.90;;;5.35;;
37069;SDS011;22984;48.862;9.320;2023-03-12T04:47:01;7.53;;;5.05;;
37069;SDS011;22984;48.862;9.320;2023-03-12T04:49:27;11.48;;;5.95;;
37069;SDS011;22984;48.862;9.320;2023-03-12T04:51:53;11.35;;;5.47;;
37069;SDS011;22984;48.862;9.320;2023-03-12T04:54:19;10.88;;;6.07;;
37069;SDS011;22984;48.862;9.320;2023-03-12T04:56:46;7.90;;;5.22;;
37069;SDS011;22984;48.862;9.320;2023-03-12T04:59:13;11.77;;;6.10;;
37069;SDS011;22984;48.862;9.320;2023-03-12T05:01:39;7.20;;;5.22;;
37069;SDS011;22984;48.862;9.320;2023-03-12T05:04:05;9.02;;;5.03;;
37069;SDS011;22984;48.862;9.320;2023-03-12T05:06:31;9.77;;;4.97;;
37069;SDS011;22984;48.862;9.320;2023-03-12T05:08:58;13.50;;;5.63;;
37069;SDS011;22984;48.862;9.320;2023-03-12T05:11:24;8.63;;;4.85;;
37069;SDS011;22984;48.862;9.320;2023-03-12T05:13:50;8.77;;;4.50;;
37069;SDS011;22984;48.862;9.320;2023-03-12T05:16:16;5.55;;;3.70;;
37069;SDS011;22984;48.862;9.320;2023-03-12T05:18:42;8.70;;;4.30;;
37069;SDS011;22984;48.862;9.320;2023-03-12T05:21:16;8.68;;;4.25;;
37069;SDS011;22984;48.862;9.320;2023-03-12T05:23:42;5.78;;;3.90;;
37069;SDS011;22984;48.862;9.320;2023-03-12T05:26:16;6.18;;;3.90;;
37069;SDS011;22984;48.862;9.320;2023-03-12T05:28:42;6.65;;;3.75;;
37069;SDS011;22984;48.862;9.320;2023-03-12T05:31:09;9.23;;;3.63;;
37069;SDS011;22984;48.862;9.320;2023-03-12T05:33:35;8.07;;;4.03;;
37069;SDS011;22984;48.862;9.320;2023-03-12T05:36:02;13.48;;;7.05;;
37069;SDS011;22984;48.862;9.320;2023-03-12T05:38:28;10.55;;;6.03;;
37069;SDS011;22984;48.862;9.320;2023-03-12T05:40:55;9.32;;;5.32;;
37069;SDS011;22984;48.862;9.320;2023-03-12T05:43:23;10.13;;;4.63;;
37069;SDS011;22984;48.862;9.320;2023-03-12T05:45:49;9.02;;;3.88;;
37069;SDS011;22984;48.862;9.320;2023-03-12T05:48:15;8.70;;;4.10;;
37069;SDS011;22984;48.862;9.320;2023-03-12T05:50:42;7.70;;;3.75;;
37069;SDS011;22984;48.862;9.320;2023-03-12T05:53:08;7.00;;;3.40;;
37069;SDS011;22984;48.862;9.320;2023-03-12T05:55:34;5.53;;;3.65;;
37069;SDS011;22984;48.862;9.320;2023-03-12T05:58:01;7.10;;;4.05;;
37069;SDS011;22984;48.862;9.320;2023-03-12T06:00:27;5.00;;;3.22;;
37069;SDS011;22984;48.862;9.320;2023-03-12T06:02:54;8.40;;;4.07;;
37069;SDS011;22984;48.862;9.320;2023-03-12T06:05:20;7.32;;;4.25;;
37069;SDS011;22984;48.862;9.320;2023-03-12T06:07:46;7.63;;;4.38;;
37069;SDS011;22984;48.862;9.320;2023-03-12T06:10:12;8.35;;;4.55;;
37069;SDS011;22984;48.862;9.320;2023-03-12T06:12:38;8.00;;;3.92;;
37069;SDS011;22984;48.862;9.320;2023-03-12T06:15:04;9.23;;;3.65;;
37069;SDS011;22984;48.862;9.320;2023-03-12T06:17:30;7.70;;;4.68;;
37069;SDS011;22984;48.862;9.320;2023-03-12T06:19:57;9.90;;;6.80;;
37069;SDS011;22984;48.862;9.320;2023-03-12T06:22:23;9.00;;;5.35;;
37069;SDS011;22984;48.862;9.320;2023-03-12T06:24:49;10.57;;;5.90;;
37069;SDS011;22984;48.862;9.320;2023-03-12T06:27:15;8.05;;;4.75;;
37069;SDS011;22984;48.862;9.320;2023-03-12T06:29:42;6.28;;;4.40;;
37069;SDS011;22984;48.862;9.320;2023-03-12T06:32:10;8.68;;;3.92;;
37069;SDS011;22984;48.862;9.320;2023-03-12T06:34:36;8.13;;;3.75;;
37069;SDS011;22984;48.862;9.320;2023-03-12T06:37:02;8.65;;;3.50;;
37069;SDS011;22984;48.862;9.320;2023-03-12T06:39:28;7.75;;;3.42;;
37069;SDS011;22984;48.862;9.320;2023-03-12T06:41:54;4.68;;;2.92;;
37069;SDS011;22984;48.862;9.320;2023-03-12T06:44:20;6.30;;;3.50;;
37069;SDS011;22984;48.862;9.320;2023-03-12T06:46:46;6.20;;;4.00;;
37069;SDS011;22984;48.862;9.320;2023-03-12T06:49:13;6.75;;;3.15;;
37069;SDS011;22984;48.862;9.320;2023-03-12T06:51:39;6.22;;;2.75;;
37069;SDS011;22984;48.862;9.320;2023-03-12T06:54:05;5.22;;;2.70;;
37069;SDS011;22984;48.862;9.320;2023-03-12T06:56:31;7.20;;;2.97;;
37069;SDS011;22984;48.862;9.320;2023-03-12T06:58:57;7.17;;;2.83;;
37069;SDS011;22984;48.862;9.320;2023-03-12T07:01:23;5.75;;;2.80;;
37069;SDS011;22984;48.862;9.320;2023-03-12T07:03:49;8.33;;;3.00;;
37069;SDS011;22984;48.862;9.320;2023-03-12T07:06:19;6.35;;;3.30;;
37069;SDS011;22984;48.862;9.320;2023-03-12T07:08:46;6.85;;;3.25;;
37069;SDS011;22984;48.862;9.320;2023-03-12T07:11:12;5.60;;;2.92;;
37069;SDS011;22984;48.862;9.320;2023-03-12T07:13:38;6.93;;;3.08;;
37069;SDS011;22984;48.862;9.320;2023-03-12T07:16:05;4.22;;;3.00;;
37069;SDS011;22984;48.862;9.320;2023-03-12T07:18:31;6.30;;;3.42;;
37069;SDS011;22984;48.862;9.320;2023-03-12T07:20:57;5.15;;;3.60;;
37069;SDS011;22984;48.862;9.320;2023-03-12T07:23:23;7.85;;;4.10;;
37069;SDS011;22984;48.862;9.320;2023-03-12T07:25:49;7.85;;;3.70;;
37069;SDS011;22984;48.862;9.320;2023-03-12T07:28:16;7.13;;;4.28;;
37069;SDS011;22984;48.862;9.320;2023-03-12T07:30:42;10.32;;;4.25;;
37069;SDS011;22984;48.862;9.320;2023-03-12T07:33:14;8.90;;;5.27;;
37069;SDS011;22984;48.862;9.320;2023-03-12T07:35:40;5.20;;;4.63;;
37069;SDS011;22984;48.862;9.320;2023-03-12T07:38:06;7.73;;;5.03;;
37069;SDS011;22984;48.862;9.320;2023-03-12T07:40:33;7.00;;;4.28;;
37069;SDS011;22984;48.862;9.320;2023-03-12T07:42:59;9.02;;;4.80;;
37069;SDS011;22984;48.862;9.320;2023-03-12T07:45:25;9.05;;;4.88;;
37069;SDS011;22984;48.862;9.320;2023-03-12T07:47:51;7.88;;;4.60;;
37069;SDS011;22984;48.862;9.320;2023-03-12T07:50:17;9.55;;;4.53;;
37069;SDS011;22984;48.862;9.320;2023-03-12T07:52:44;5.95;;;4.18;;
37069;SDS011;22984;48.862;9.320;2023-03-12T07:55:11;6.90;;;3.92;;
37069;SDS011;22984;48.862;9.320;2023-03-12T07:57:39;5.35;;;4.18;;
37069;SDS011;22984;48.862;9.320;2023-03-12T08:00:08;8.90;;;4.00;;
37069;SDS011;22984;48.862;9.320;2023-03-12T08:02:35;8.85;;;3.70;;
37069;SDS011;22984;48.862;9.320;2023-03-12T08:05:03;4.90;;;3.95;;
37069;SDS011;22984;48.862;9.320;2023-03-12T08:07:30;4.43;;;3.83;;
37069;SDS011;22984;48.862;9.320;2023-03-12T08:10:04;5.40;;;3.67;;
37069;SDS011;22984;48.862;9.320;2023-03-12T08:12:30;5.30;;;4.18;;
37069;SDS011;22984;48.862;9.320;2023-03-12T08:14:56;10.07;;;5.38;;
37069;SDS011;22984;48.862;9.320;2023-03-12T08:17:23;6.40;;;3.83;;
37069;SDS011;22984;48.862;9.320;2023-03-12T08:19:49;7.95;;;4.50;;
37069;SDS011;22984;48.862;9.320;2023-03-12T08:22:15;6.75;;;4.53;;
37069;SDS011;22984;48.862;9.320;2023-03-12T08:24:41;5.93;;;4.53;;
37069;SDS011;22984;48.862;9.320;2023-03-12T08:27:07;6.32;;;4.47;;
37069;SDS011;22984;48.862;9.320;2023-03-12T08:29:33;6.15;;;5.55;;
37069;SDS011;22984;48.862;9.320;2023-03-12T08:31:59;9.57;;;6.30;;
37069;SDS011;22984;48.862;9.320;2023-03-12T08:34:25;7.10;;;5.72;;
37069;SDS011;22984;48.862;9.320;2023-03-12T08:36:51;6.63;;;5.93;;
37069;SDS011;22984;48.862;9.320;2023-03-12T08:39:17;6.05;;;5.45;;
37069;SDS011;22984;48.862;9.320;2023-03-12T08:41:43;10.02;;;6.00;;
37069;SDS011;22984;48.862;9.320;2023-03-12T08:44:10;9.25;;;5.72;;
37069;SDS011;22984;48.862;9.320;2023-03-12T08:46:36;8.82;;;6.70;;
37069;SDS011;22984;48.862;9.320;2023-03-12T08:49:02;9.35;;;6.90;;
37069;SDS011;22984;48.862;9.320;2023-03-12T08:51:28;8.75;;;6.78;;
37069;SDS011;22984;48.862;9.320;2023-03-12T08:53:54;8.13;;;6.22;;
37069;SDS011;22984;48.862;9.320;2023-03-12T08:56:20;8.65;;;7.25;;
37069;SDS011;22984;48.862;9.320;2023-03-12T08:58:46;10.15;;;6.97;;
37069;SDS011;22984;48.862;9.320;2023-03-12T09:01:12;10.10;;;7.05;;
37069;SDS011;22984;48.862;9.320;2023-03-12T09:03:39;12.77;;;8.00;;
37069;SDS011;22984;48.862;9.320;2023-03-12T09:06:12;10.15;;;8.68;;
37069;SDS011;22984;48.862;9.320;2023-03-12T09:08:41;10.77;;;7.75;;
37069;SDS011;22984;48.862;9.320;2023-03-12T09:11:07;8.70;;;7.55;;
37069;SDS011;22984;48.862;9.320;2023-03-12T09:13:33;11.68;;;8.10;;
37069;SDS011;22984;48.862;9.320;2023-03-12T09:16:00;10.50;;;7.88;;
37069;SDS011;22984;48.862;9.320;2023-03-12T09:18:26;8.85;;;7.50;;
37069;SDS011;22984;48.862;9.320;2023-03-12T09:20:52;10.23;;;7.20;;
37069;SDS011;22984;48.862;9.320;2023-03-12T09:23:18;11.27;;;7.85;;
37069;SDS011;22984;48.862;9.320;2023-03-12T09:25:44;8.80;;;8.00;;
37069;SDS011;22984;48.862;9.320;2023-03-12T09:28:11;11.98;;;7.97;;
37069;SDS011;22984;48.862;9.320;2023-03-12T09:30:37;9.27;;;7.05;;
37069;SDS011;22984;48.862;9.320;2023-03-12T09:33:03;12.27;;;7.18;;
37069;SDS011;22984;48.862;9.320;2023-03-12T09:35:29;12.10;;;7.85;;
37069;SDS011;22984;48.862;9.320;2023-03-12T09:37:55;7.13;;;6.45;;
37069;SDS011;22984;48.862;9.320;2023-03-12T09:40:23;10.20;;;7.43;;
37069;SDS011;22984;48.862;9.320;2023-03-12T09:45:45;13.07;;;7.55;;
37069;SDS011;22984;48.862;9.320;2023-03-12T09:48:13;11.53;;;7.60;;
37069;SDS011;22984;48.862;9.320;2023-03-12T09:50:42;9.18;;;6.72;;
37069;SDS011;22984;48.862;9.320;2023-03-12T09:53:29;8.93;;;6.93;;
37069;SDS011;22984;48.862;9.320;2023-03-12T09:55:57;7.97;;;7.18;;
37069;SDS011;22984;48.862;9.320;2023-03-12T10:00:50;10.35;;;6.15;;
37069;SDS011;22984;48.862;9.320;2023-03-12T10:03:21;6.88;;;6.05;;
37069;SDS011;22984;48.862;9.320;2023-03-12T10:08:32;7.27;;;5.87;;
37069;SDS011;22984;48.862;9.320;2023-03-12T10:13:42;9.48;;;6.68;;
37069;SDS011;22984;48.862;9.320;2023-03-12T10:16:14;7.15;;;6.45;;
37069;SDS011;22984;48.862;9.320;2023-03-12T10:24:06;8.23;;;6.00;;
37069;SDS011;22984;48.862;9.320;2023-03-12T10:26:42;6.57;;;5.97;;
37069;SDS011;22984;48.862;9.320;2023-03-12T10:29:15;7.15;;;6.03;;
37069;SDS011;22984;48.862;9.320;2023-03-12T10:31:50;7.18;;;5.90;;
37069;SDS011;22984;48.862;9.320;2023-03-12T10:34:37;6.25;;;5.35;;
37069;SDS011;22984;48.862;9.320;2023-03-12T10:37:24;6.68;;;5.97;;
37069;SDS011;22984;48.862;9.320;2023-03-12T10:39:52;7.32;;;5.85;;
37069;SDS011;22984;48.862;9.320;2023-03-12T10:42:20;5.57;;;5.10;;
37069;SDS011;22984;48.862;9.320;2023-03-12T10:44:51;5.85;;;5.30;;
37069;SDS011;22984;48.862;9.320;2023-03-12T10:47:29;6.45;;;5.80;;
37069;SDS011;22984;48.862;9.320;2023-03-12T10:50:10;8.38;;;5.53;;
37069;SDS011;22984;48.862;9.320;2023-03-12T10:52:36;7.20;;;5.57;;
37069;SDS011;22984;48.862;9.320;2023-03-12T10:55:09;7.53;;;5.88;;
37069;SDS011;22984;48.862;9.320;2023-03-12T10:57:40;6.28;;;5.65;;
37069;SDS011;22984;48.862;9.320;2023-03-12T11:00:07;7.00;;;5.55;;
37069;SDS011;22984;48.862;9.320;2023-03-12T11:02:43;5.38;;;4.93;;
37069;SDS011;22984;48.862;9.320;2023-03-12T11:07:44;5.50;;;4.93;;
37069;SDS011;22984;48.862;9.320;2023-03-12T11:12:37;5.05;;;4.63;;
37069;SDS011;22984;48.862;9.320;2023-03-12T11:17:45;6.53;;;5.47;;
37069;SDS011;22984;48.862;9.320;2023-03-12T11:20:45;4.60;;;4.30;;
37069;SDS011;22984;48.862;9.320;2023-03-12T11:23:14;6.35;;;4.75;;
37069;SDS011;22984;48.862;9.320;2023-03-12T11:25:40;6.40;;;4.57;;
37069;SDS011;22984;48.862;9.320;2023-03-12T11:28:06;8.60;;;5.07;;
37069;SDS011;22984;48.862;9.320;2023-03-12T11:30:39;6.60;;;5.22;;
37069;SDS011;22984;48.862;9.320;2023-03-12T11:33:07;6.50;;;5.07;;
37069;SDS011;22984;48.862;9.320;2023-03-12T11:38:19;4.38;;;3.80;;
37069;SDS011;22984;48.862;9.320;2023-03-12T11:40:58;2.42;;;2.22;;
37069;SDS011;22984;48.862;9.320;2023-03-12T11:43:33;2.10;;;1.90;;
37069;SDS011;22984;48.862;9.320;2023-03-12T11:56:52;2.50;;;1.67;;
37069;SDS011;22984;48.862;9.320;2023-03-12T12:12:21;3.60;;;1.23;;
37069;SDS011;22984;48.862;9.320;2023-03-12T12:25:15;1.67;;;1.58;;
37069;SDS011;22984;48.862;9.320;2023-03-12T12:27:52;4.63;;;1.63;;
37069;SDS011;22984;48.862;9.320;2023-03-12T12:37:52;3.85;;;0.88;;
37069;SDS011;22984;48.862;9.320;2023-03-12T12:42:48;2.80;;;0.70;;
37069;SDS011;22984;48.862;9.320;2023-03-12T12:45:17;3.17;;;1.00;;
37069;SDS011;22984;48.862;9.320;2023-03-12T12:47:51;2.03;;;0.80;;
37069;SDS011;22984;48.862;9.320;2023-03-12T12:50:19;2.70;;;1.02;;
37069;SDS011;22984;48.862;9.320;2023-03-12T12:52:49;5.25;;;0.95;;
37069;SDS011;22984;48.862;9.320;2023-03-12T12:55:33;4.75;;;1.20;;
37069;SDS011;22984;48.862;9.320;2023-03-12T12:58:04;3.28;;;0.80;;
37069;SDS011;22984;48.862;9.320;2023-03-12T13:00:39;4.60;;;0.95;;
37069;SDS011;22984;48.862;9.320;2023-03-12T13:03:15;4.78;;;1.13;;
37069;SDS011;22984;48.862;9.320;2023-03-12T13:05:44;3.72;;;1.00;;
37069;SDS011;22984;48.862;9.320;2023-03-12T13:08:30;3.85;;;0.90;;
37069;SDS011;22984;48.862;9.320;2023-03-12T13:10:56;3.97;;;1.13;;
37069;SDS011;22984;48.862;9.320;2023-03-12T13:13:22;3.72;;;1.17;;
37069;SDS011;22984;48.862;9.320;2023-03-12T13:15:49;5.82;;;1.20;;
37069;SDS011;22984;48.862;9.320;2023-03-12T13:18:22;3.75;;;1.58;;
37069;SDS011;22984;48.862;9.320;2023-03-12T13:28:36;5.07;;;1.75;;
37069;SDS011;22984;48.862;9.320;2023-03-12T13:33:43;3.75;;;0.80;;
37069;SDS011;22984;48.862;9.320;2023-03-12T13:46:45;4.55;;;1.75;;
37069;SDS011;22984;48.862;9.320;2023-03-12T13:49:12;4.83;;;1.57;;
37069;SDS011;22984;48.862;9.320;2023-03-12T13:51:43;2.88;;;1.20;;
37069;SDS011;22984;48.862;9.320;2023-03-12T13:54:12;3.73;;;1.20;;
37069;SDS011;22984;48.862;9.320;2023-03-12T13:56:39;5.57;;;1.30;;
37069;SDS011;22984;48.862;9.320;2023-03-12T13:59:14;3.45;;;1.25;;
37069;SDS011;22984;48.862;9.320;2023-03-12T14:01:44;6.10;;;1.38;;
37069;SDS011;22984;48.862;9.320;2023-03-12T14:04:19;3.63;;;1.13;;
37069;SDS011;22984;48.862;9.320;2023-03-12T14:06:59;5.05;;;2.10;;
37069;SDS011;22984;48.862;9.320;2023-03-12T14:10:17;4.30;;;1.30;;
37069;SDS011;22984;48.862;9.320;2023-03-12T14:12:24;7.07;;;2.95;;
37069;SDS011;22984;48.862;9.320;2023-03-12T14:17:22;5.88;;;1.65;;
37069;SDS011;22984;48.862;9.320;2023-03-12T14:20:04;6.18;;;1.73;;
37069;SDS011;22984;48.862;9.320;2023-03-12T14:22:36;7.35;;;1.48;;
37069;SDS011;22984;48.862;9.320;2023-03-12T14:27:48;6.25;;;1.52;;
37069;SDS011;22984;48.862;9.320;2023-03-12T14:32:40;8.00;;;1.67;;
37069;SDS011;22984;48.862;9.320;2023-03-12T14:35:13;7.55;;;1.73;;
37069;SDS011;22984;48.862;9.320;2023-03-12T14:37:43;3.30;;;1.13;;
37069;SDS011;22984;48.862;9.320;2023-03-12T14:40:59;5.87;;;1.40;;
37069;SDS011;22984;48.862;9.320;2023-03-12T14:43:00;5.30;;;1.20;;
37069;SDS011;22984;48.862;9.320;2023-03-12T14:45:26;4.40;;;1.20;;
37069;SDS011;22984;48.862;9.320;2023-03-12T14:47:54;4.55;;;1.20;;
37069;SDS011;22984;48.862;9.320;2023-03-12T14:50:24;4.53;;;1.02;;
37069;SDS011;22984;48.862;9.320;2023-03-12T14:52:50;3.55;;;1.05;;
37069;SDS011;22984;48.862;9.320;2023-03-12T14:55:21;3.33;;;1.08;;
37069;SDS011;22984;48.862;9.320;2023-03-12T14:57:47;4.70;;;1.70;;
37069;SDS011;22984;48.862;9.320;2023-03-12T15:00:24;3.17;;;1.20;;
37069;SDS011;22984;48.862;9.320;2023-03-12T15:02:51;4.23;;;1.47;;
37069;SDS011;22984;48.862;9.320;2023-03-12T15:05:18;4.28;;;1.27;;
37069;SDS011;22984;48.862;9.320;2023-03-12T15:07:45;6.90;;;1.50;;
37069;SDS011;22984;48.862;9.320;2023-03-12T15:10:17;3.57;;;1.20;;
37069;SDS011;22984;48.862;9.320;2023-03-12T15:12:44;6.57;;;1.45;;
37069;SDS011;22984;48.862;9.320;2023-03-12T15:15:31;6.23;;;1.40;;
37069;SDS011;22984;48.862;9.320;2023-03-12T15:18:00;6.82;;;1.63;;
37069;SDS011;22984;48.862;9.320;2023-03-12T15:20:27;4.57;;;1.60;;
37069;SDS011;22984;48.862;9.320;2023-03-12T15:22:54;5.43;;;1.73;;
37069;SDS011;22984;48.862;9.320;2023-03-12T15:25:22;2.60;;;1.20;;
37069;SDS011;22984;48.862;9.320;2023-03-12T15:27:58;5.85;;;1.60;;
37069;SDS011;22984;48.862;9.320;2023-03-12T15:30:25;6.80;;;2.10;;
37069;SDS011;22984;48.862;9.320;2023-03-12T15:33:34;3.22;;;1.02;;
37069;SDS011;22984;48.862;9.320;2023-03-12T15:35:42;4.30;;;1.55;;
37069;SDS011;22984;48.862;9.320;2023-03-12T15:38:22;4.38;;;1.38;;
37069;SDS011;22984;48.862;9.320;2023-03-12T15:40:49;4.80;;;1.50;;
37069;SDS011;22984;48.862;9.320;2023-03-12T15:43:18;4.30;;;1.70;;
37069;SDS011;22984;48.862;9.320;2023-03-12T15:45:44;4.75;;;1.67;;
37069;SDS011;22984;48.862;9.320;2023-03-12T15:50:46;4.85;;;1.42;;
37069;SDS011;22984;48.862;9.320;2023-03-12T15:55:41;5.57;;;1.20;;
37069;SDS011;22984;48.862;9.320;2023-03-12T15:58:23;3.97;;;1.50;;
37069;SDS011;22984;48.862;9.320;2023-03-12T16:00:50;6.32;;;1.33;;
37069;SDS011;22984;48.862;9.320;2023-03-12T16:03:20;5.97;;;1.27;;
37069;SDS011;22984;48.862;9.320;2023-03-12T16:05:47;4.30;;;1.27;;
37069;SDS011;22984;48.862;9.320;2023-03-12T16:08:17;4.75;;;1.48;;
37069;SDS011;22984;48.862;9.320;2023-03-12T16:10:49;5.68;;;1.70;;
37069;SDS011;22984;48.862;9.320;2023-03-12T16:13:16;3.15;;;1.30;;
37069;SDS011;22984;48.862;9.320;2023-03-12T16:15:43;7.78;;;1.73;;
37069;SDS011;22984;48.862;9.320;2023-03-12T16:18:11;5.13;;;1.73;;
37069;SDS011;22984;48.862;9.320;2023-03-12T16:20:37;9.32;;;2.13;;
37069;SDS011;22984;48.862;9.320;2023-03-12T16:23:03;4.55;;;1.50;;
37069;SDS011;22984;48.862;9.320;2023-03-12T16:25:29;6.32;;;1.73;;
37069;SDS011;22984;48.862;9.320;2023-03-12T16:27:56;6.40;;;1.70;;
37069;SDS011;22984;48.862;9.320;2023-03-12T16:30:29;4.53;;;1.55;;
37069;SDS011;22984;48.862;9.320;2023-03-12T16:32:56;4.95;;;1.52;;
37069;SDS011;22984;48.862;9.320;2023-03-12T16:35:23;8.95;;;2.10;;
37069;SDS011;22984;48.862;9.320;2023-03-12T16:37:50;7.63;;;2.00;;
37069;SDS011;22984;48.862;9.320;2023-03-12T16:40:17;7.43;;;3.05;;